Time;durP1;ratioP1;P1;durP2;ratioP2;P2;SDS_P1;SDS_P2;PMS_P1;PMS_P2;Temp;Humidity;BMP_temperature;BMP_pressure;BME280_temperature;BME280_humidity;BME280_pressure;Samples;Min_cycle;Max_cycle;Signal;HPM_P1;HPM_P2
2023/04/29 00:02:21;;;;;;;8.10;5.60;;;12.00;99.90;;;;;;5221334;28;20815;-46
2023/04/29 00:04:53;;;;;;;9.80;5.90;;;12.00;99.90;;;;;;5224003;28;20461;-45
2023/04/29 00:07:24;;;;;;;14.77;6.37;;;12.00;99.90;;;;;;5223393;28;20189;-45
2023/04/29 00:09:54;;;;;;;6.83;5.80;;;12.00;99.90;;;;;;5227144;28;20445;-44
2023/04/29 00:12:25;;;;;;;6.63;5.67;;;11.90;99.90;;;;;;5223954;28;20222;-46
2023/04/29 00:14:56;;;;;;;8.67;6.30;;;11.90;99.90;;;;;;5220459;28;20194;-46
2023/04/29 00:17:27;;;;;;;23.40;7.20;;;12.00;99.90;;;;;;5204801;28;20503;-45
2023/04/29 00:19:58;;;;;;;11.53;6.83;;;12.00;99.90;;;;;;5219152;28;20429;-45
2023/04/29 00:22:28;;;;;;;9.00;6.37;;;11.90;99.90;;;;;;5219961;28;20473;-45
2023/04/29 00:24:59;;;;;;;7.50;6.20;;;11.90;99.90;;;;;;5221833;28;20605;-45
2023/04/29 00:27:31;;;;;;;6.67;5.70;;;11.80;99.90;;;;;;5223143;28;20591;-45
2023/04/29 00:30:02;;;;;;;6.87;5.70;;;11.80;99.90;;;;;;5223597;28;20187;-45
2023/04/29 00:32:33;;;;;;;7.87;5.97;;;11.70;99.90;;;;;;5220877;28;20560;-46
2023/04/29 00:35:04;;;;;;;7.90;5.70;;;11.80;99.90;;;;;;5219420;28;20437;-45
2023/04/29 00:37:35;;;;;;;7.93;6.80;;;11.80;99.90;;;;;;5223198;28;20189;-43
2023/04/29 00:40:07;;;;;;;11.03;6.67;;;11.80;99.90;;;;;;5218617;28;20815;-44
2023/04/29 00:42:38;;;;;;;9.33;6.17;;;11.70;99.90;;;;;;5218322;28;20187;-44
2023/04/29 00:45:12;;;;;;;14.93;6.40;;;11.70;99.90;;;;;;5212042;28;20437;-45
2023/04/29 00:47:43;;;;;;;6.83;6.23;;;11.80;99.90;;;;;;5218081;28;20186;-45
2023/04/29 00:50:13;;;;;;;9.77;5.90;;;11.70;99.90;;;;;;5224179;28;21016;-45
2023/04/29 00:52:45;;;;;;;6.53;5.77;;;11.70;99.90;;;;;;5224141;28;20215;-45
2023/04/29 00:55:17;;;;;;;5.70;5.20;;;11.60;99.90;;;;;;5219948;28;20175;-45
2023/04/29 00:57:51;;;;;;;6.90;6.30;;;11.70;99.90;;;;;;5220100;28;20429;-44
2023/04/29 01:00:23;;;;;;;10.30;6.33;;;11.70;99.90;;;;;;5210701;28;20462;-44
2023/04/29 01:02:55;;;;;;;10.20;6.10;;;11.70;99.90;;;;;;5223483;28;20488;-44
2023/04/29 01:05:26;;;;;;;6.67;5.77;;;11.70;99.90;;;;;;5224033;28;20452;-44
2023/04/29 01:08:12;;;;;;;7.57;6.80;;;11.70;99.90;;;;;;5220973;28;20449;-45
2023/04/29 01:10:55;;;;;;;9.00;7.07;;;11.80;99.90;;;;;;5220131;28;20453;-46
2023/04/29 01:13:48;;;;;;;12.33;8.10;;;11.80;99.90;;;;;;5223151;28;20469;-44
2023/04/29 01:16:22;;;;;;;9.10;6.83;;;11.70;99.90;;;;;;5224986;28;20437;-46
2023/04/29 01:18:56;;;;;;;7.93;6.57;;;11.70;99.90;;;;;;5224485;28;20433;-44
2023/04/29 01:21:29;;;;;;;8.30;7.40;;;11.70;99.90;;;;;;5223710;28;20793;-45
2023/04/29 01:24:00;;;;;;;7.90;7.30;;;11.60;99.90;;;;;;5225930;28;20511;-44
2023/04/29 01:26:34;;;;;;;12.23;7.90;;;11.50;99.90;;;;;;5224734;28;20844;-46
2023/04/29 01:29:34;;;;;;;18.33;8.20;;;11.40;99.90;;;;;;5214427;28;20436;-46
2023/04/29 01:32:08;;;;;;;10.53;7.10;;;11.30;99.90;;;;;;5217659;28;20830;-47
2023/04/29 01:34:51;;;;;;;9.27;7.87;;;11.10;99.90;;;;;;5219299;28;20818;-48
2023/04/29 01:37:34;;;;;;;9.33;8.40;;;10.90;99.90;;;;;;5225412;28;20508;-46
2023/04/29 01:40:19;;;;;;;16.63;10.33;;;10.90;99.90;;;;;;5221616;28;20491;-48
2023/04/29 01:43:00;;;;;;;13.33;11.20;;;10.80;99.90;;;;;;5217248;28;20461;-47
2023/04/29 01:45:33;;;;;;;20.50;13.27;;;10.60;99.90;;;;;;5222827;28;20445;-46
2023/04/29 01:48:04;;;;;;;25.43;13.57;;;10.40;99.90;;;;;;5227261;28;20940;-45
2023/04/29 01:50:35;;;;;;;13.43;11.70;;;10.30;99.90;;;;;;5224171;28;20434;-45
2023/04/29 01:53:07;;;;;;;16.57;14.67;;;10.30;99.90;;;;;;5209191;28;20464;-46
2023/04/29 01:55:37;;;;;;;14.27;12.47;;;10.20;99.90;;;;;;5218914;28;20370;-46
2023/04/29 01:58:09;;;;;;;16.27;13.33;;;10.30;99.90;;;;;;5205237;28;21019;-46
2023/04/29 02:00:41;;;;;;;16.57;12.97;;;10.30;99.90;;;;;;5216921;28;20199;-46
2023/04/29 02:03:12;;;;;;;15.90;13.17;;;10.30;99.90;;;;;;5224182;28;20453;-45
2023/04/29 02:05:42;;;;;;;19.73;15.13;;;10.20;99.90;;;;;;5220617;28;20507;-45
2023/04/29 02:08:13;;;;;;;16.30;13.07;;;10.30;99.90;;;;;;5225859;28;20445;-45
2023/04/29 02:10:54;;;;;;;20.97;16.13;;;10.20;99.90;;;;;;5224448;28;20194;-46
2023/04/29 02:13:24;;;;;;;22.03;15.03;;;10.20;99.90;;;;;;5223661;28;20210;-46
2023/04/29 02:15:55;;;;;;;18.40;13.47;;;10.20;99.90;;;;;;5221419;28;20441;-45
2023/04/29 02:18:26;;;;;;;21.93;15.27;;;10.20;99.90;;;;;;5221630;28;20175;-46
2023/04/29 02:21:03;;;;;;;20.13;14.40;;;10.30;99.90;;;;;;5219398;28;20179;-46
2023/04/29 02:23:34;;;;;;;17.87;14.40;;;10.20;99.90;;;;;;5219427;28;20453;-46
2023/04/29 02:26:05;;;;;;;18.13;15.43;;;10.30;99.90;;;;;;5217702;28;20496;-46
2023/04/29 02:28:36;;;;;;;19.70;17.63;;;10.50;99.90;;;;;;5221550;28;20430;-47
2023/04/29 02:31:07;;;;;;;33.90;18.70;;;10.30;99.90;;;;;;5235284;28;20504;-46
2023/04/29 02:33:37;;;;;;;19.67;16.83;;;10.20;99.90;;;;;;5218715;28;20187;-46
2023/04/29 02:36:08;;;;;;;34.50;20.60;;;10.20;99.90;;;;;;5220438;28;20183;-47
2023/04/29 02:38:38;;;;;;;24.37;18.50;;;10.20;99.90;;;;;;5217631;28;20172;-46
2023/04/29 02:41:09;;;;;;;28.67;18.40;;;10.20;99.90;;;;;;5222992;28;20225;-47
2023/04/29 02:43:40;;;;;;;26.40;19.23;;;10.30;99.90;;;;;;5206798;28;20266;-45
2023/04/29 02:46:10;;;;;;;28.37;19.83;;;10.20;99.90;;;;;;5200848;28;20214;-46
2023/04/29 02:48:41;;;;;;;25.80;20.90;;;10.20;99.90;;;;;;5221217;28;20647;-47
2023/04/29 02:51:11;;;;;;;27.30;21.00;;;10.40;99.90;;;;;;5221189;28;20178;-47
2023/04/29 02:53:43;;;;;;;27.43;19.90;;;10.30;99.90;;;;;;5225698;28;20256;-47
2023/04/29 02:56:13;;;;;;;31.33;20.53;;;10.50;99.90;;;;;;5217988;28;20180;-47
2023/04/29 02:58:44;;;;;;;31.13;20.37;;;10.40;99.90;;;;;;5206430;28;20425;-47
2023/04/29 03:01:15;;;;;;;27.37;17.80;;;10.50;99.90;;;;;;5224259;28;20183;-46
2023/04/29 03:03:45;;;;;;;27.00;19.00;;;10.40;99.90;;;;;;5219975;28;20290;-46
2023/04/29 03:06:16;;;;;;;29.83;19.10;;;10.50;99.90;;;;;;5222666;28;20171;-46
2023/04/29 03:08:46;;;;;;;23.20;19.23;;;10.60;99.90;;;;;;5221439;28;20206;-46
2023/04/29 03:11:17;;;;;;;31.37;20.83;;;10.50;99.90;;;;;;5222219;28;20179;-46
2023/04/29 03:13:47;;;;;;;28.07;20.57;;;10.50;99.90;;;;;;5219139;28;20261;-45
2023/04/29 03:16:18;;;;;;;31.73;21.03;;;10.50;99.90;;;;;;5222361;28;20188;-47
2023/04/29 03:18:49;;;;;;;31.67;22.17;;;10.60;99.90;;;;;;5219979;28;20206;-46
2023/04/29 03:21:19;;;;;;;27.00;18.77;;;10.50;99.90;;;;;;5219307;28;20221;-45
2023/04/29 03:23:50;;;;;;;23.77;18.23;;;10.50;99.90;;;;;;5223575;28;20260;-45
2023/04/29 03:26:23;;;;;;;27.33;21.03;;;10.50;99.90;;;;;;5217868;28;20194;-46
2023/04/29 03:28:53;;;;;;;24.60;19.03;;;10.60;99.90;;;;;;5221033;28;20236;-45
2023/04/29 03:31:26;;;;;;;25.43;18.73;;;10.60;99.90;;;;;;5221906;28;20465;-46
2023/04/29 03:33:56;;;;;;;31.10;17.13;;;10.60;99.90;;;;;;5219367;28;20202;-46
2023/04/29 03:36:27;;;;;;;25.40;17.93;;;10.60;99.90;;;;;;5213033;28;20962;-46
2023/04/29 03:38:58;;;;;;;22.13;17.50;;;10.60;99.90;;;;;;5218961;28;20701;-45
2023/04/29 03:41:29;;;;;;;27.20;18.53;;;10.50;99.90;;;;;;5217942;28;20445;-47
2023/04/29 03:43:59;;;;;;;28.87;20.43;;;10.60;99.90;;;;;;5219751;28;20207;-47
2023/04/29 03:46:30;;;;;;;28.00;19.03;;;10.60;99.90;;;;;;5217089;28;20205;-47
2023/04/29 03:49:01;;;;;;;27.93;20.50;;;10.60;99.90;;;;;;5212702;28;20633;-45
2023/04/29 03:51:31;;;;;;;27.80;20.80;;;10.60;99.90;;;;;;5204571;28;20207;-46
2023/04/29 03:54:02;;;;;;;34.50;21.33;;;10.80;99.90;;;;;;5216030;28;20214;-47
2023/04/29 03:56:33;;;;;;;27.10;19.73;;;10.80;99.90;;;;;;5217468;28;20171;-46
2023/04/29 03:59:03;;;;;;;29.63;21.23;;;10.80;99.90;;;;;;5211638;28;20187;-46
2023/04/29 04:01:34;;;;;;;35.63;20.07;;;10.70;99.90;;;;;;5213588;28;20261;-47
2023/04/29 04:04:04;;;;;;;26.03;20.50;;;10.90;99.90;;;;;;5215649;28;20748;-45
2023/04/29 04:06:35;;;;;;;29.13;23.53;;;10.80;99.90;;;;;;5216562;28;20191;-44
2023/04/29 04:09:06;;;;;;;34.43;23.20;;;10.80;99.90;;;;;;5222940;28;20186;-45
2023/04/29 04:11:37;;;;;;;27.40;20.97;;;10.80;99.90;;;;;;5209779;28;20632;-45
2023/04/29 04:14:08;;;;;;;31.87;23.40;;;10.80;99.90;;;;;;5217420;28;20469;-45
2023/04/29 04:16:39;;;;;;;37.53;23.83;;;10.90;99.90;;;;;;5221763;28;20195;-44
2023/04/29 04:19:11;;;;;;;38.07;27.30;;;10.90;99.90;;;;;;5227233;28;20199;-46
2023/04/29 04:21:42;;;;;;;43.20;28.87;;;10.90;99.90;;;;;;5219397;28;21190;-46
2023/04/29 04:24:12;;;;;;;31.80;23.93;;;11.00;99.90;;;;;;5204939;28;20258;-46
2023/04/29 04:26:43;;;;;;;38.90;25.07;;;11.00;99.90;;;;;;5218842;28;20210;-43
2023/04/29 04:29:13;;;;;;;30.43;22.07;;;11.00;99.90;;;;;;5216603;28;20195;-43
2023/04/29 04:31:44;;;;;;;37.40;24.80;;;11.00;99.90;;;;;;5215546;28;20330;-48
2023/04/29 04:34:15;;;;;;;39.53;27.27;;;11.10;99.90;;;;;;5216791;28;20239;-43
2023/04/29 04:36:45;;;;;;;43.33;26.10;;;11.10;99.90;;;;;;5223184;28;20183;-45
2023/04/29 04:39:16;;;;;;;35.37;24.40;;;11.10;99.90;;;;;;5221611;28;20627;-45
2023/04/29 04:41:46;;;;;;;37.60;25.77;;;11.10;99.90;;;;;;5222938;28;20543;-46
2023/04/29 04:44:17;;;;;;;33.87;25.77;;;11.10;99.90;;;;;;5220921;28;20212;-45
2023/04/29 04:46:49;;;;;;;39.70;28.07;;;11.20;99.90;;;;;;5215725;28;20285;-45
2023/04/29 04:49:19;;;;;;;37.97;25.63;;;11.20;99.90;;;;;;5216804;28;20687;-46
2023/04/29 04:51:50;;;;;;;34.77;23.73;;;11.20;99.90;;;;;;5217174;28;20483;-46
2023/04/29 04:54:21;;;;;;;41.00;26.60;;;11.20;99.90;;;;;;5219301;28;20686;-47
2023/04/29 04:56:51;;;;;;;41.93;26.90;;;11.30;99.90;;;;;;5217011;28;20241;-45
2023/04/29 04:59:22;;;;;;;38.43;25.37;;;11.30;99.90;;;;;;5222748;28;20588;-45
2023/04/29 05:01:52;;;;;;;38.60;26.90;;;11.30;99.90;;;;;;5224562;28;20205;-47
2023/04/29 05:04:23;;;;;;;32.47;23.87;;;11.40;99.90;;;;;;5220284;28;20302;-46
2023/04/29 05:06:54;;;;;;;36.07;24.97;;;11.40;99.90;;;;;;5219928;28;20254;-43
2023/04/29 05:09:25;;;;;;;35.37;24.37;;;11.40;99.90;;;;;;5202568;28;20269;-46
2023/04/29 05:11:58;;;;;;;39.20;26.20;;;11.40;99.90;;;;;;5222357;28;20674;-46
2023/04/29 05:14:28;;;;;;;58.87;28.93;;;11.50;99.90;;;;;;5218152;28;20591;-45
2023/04/29 05:16:59;;;;;;;37.10;24.97;;;11.50;99.90;;;;;;5218394;28;20441;-46
2023/04/29 05:19:30;;;;;;;32.70;24.40;;;11.50;99.90;;;;;;5214602;28;20195;-43
2023/04/29 05:22:00;;;;;;;53.57;31.73;;;11.50;99.90;;;;;;5213902;28;20171;-45
2023/04/29 05:24:31;;;;;;;42.77;27.50;;;11.50;99.90;;;;;;5212379;28;20662;-45
2023/04/29 05:27:03;;;;;;;40.80;26.87;;;11.60;99.90;;;;;;5212231;28;20182;-45
2023/04/29 05:29:33;;;;;;;42.67;29.67;;;11.60;99.90;;;;;;5217254;28;20994;-45
2023/04/29 05:32:04;;;;;;;34.70;25.47;;;11.60;99.90;;;;;;5199286;28;20453;-47
2023/04/29 05:34:35;;;;;;;39.10;27.20;;;11.60;99.90;;;;;;5219557;28;20561;-45
2023/04/29 05:37:05;;;;;;;34.50;24.77;;;11.60;99.90;;;;;;5221277;28;20198;-48
2023/04/29 05:39:36;;;;;;;34.83;26.10;;;11.60;99.90;;;;;;5219868;28;20233;-45
2023/04/29 05:42:07;;;;;;;41.43;27.17;;;11.60;99.90;;;;;;5224225;28;20595;-46
2023/04/29 05:44:38;;;;;;;32.03;23.27;;;11.60;99.90;;;;;;5222068;28;20674;-44
2023/04/29 05:47:09;;;;;;;33.87;22.30;;;11.60;99.90;;;;;;5216442;28;20657;-46
2023/04/29 05:49:39;;;;;;;38.70;24.50;;;11.70;99.90;;;;;;5223918;28;20434;-46
2023/04/29 05:52:10;;;;;;;32.63;22.10;;;11.70;99.90;;;;;;5218636;28;20610;-46
2023/04/29 05:54:41;;;;;;;33.37;21.87;;;11.70;99.90;;;;;;5220905;28;20199;-45
2023/04/29 05:57:11;;;;;;;32.93;21.37;;;11.70;99.90;;;;;;5224540;28;20174;-46
2023/04/29 05:59:42;;;;;;;31.53;21.77;;;11.70;99.90;;;;;;5221652;28;20179;-45
2023/04/29 06:02:13;;;;;;;32.87;21.70;;;11.70;99.90;;;;;;5210823;28;20190;-45
2023/04/29 06:04:46;;;;;;;33.13;21.63;;;11.80;99.90;;;;;;5225223;28;20195;-46
2023/04/29 06:07:17;;;;;;;30.70;22.20;;;11.80;99.90;;;;;;5220869;28;20452;-47
2023/04/29 06:09:48;;;;;;;38.27;24.20;;;11.80;99.90;;;;;;5222680;28;20433;-46
2023/04/29 06:12:18;;;;;;;32.33;23.30;;;11.80;99.90;;;;;;5219738;28;20867;-46
2023/04/29 06:14:49;;;;;;;31.90;22.77;;;11.80;99.90;;;;;;5218379;28;20214;-45
2023/04/29 06:17:20;;;;;;;33.67;22.87;;;11.80;99.90;;;;;;5219928;28;20274;-45
2023/04/29 06:19:50;;;;;;;32.63;21.50;;;11.80;99.90;;;;;;5217042;28;20302;-46
2023/04/29 06:22:21;;;;;;;40.40;25.53;;;11.90;99.90;;;;;;5205407;28;20469;-47
2023/04/29 06:24:52;;;;;;;30.87;22.23;;;11.90;99.90;;;;;;5215565;28;20675;-45
2023/04/29 06:27:22;;;;;;;47.47;27.27;;;11.90;99.90;;;;;;5219838;28;20187;-47
2023/04/29 06:29:53;;;;;;;37.43;24.13;;;11.90;99.90;;;;;;5223207;28;20217;-43
2023/04/29 06:32:23;;;;;;;36.97;23.20;;;12.00;99.90;;;;;;5219442;28;20581;-45
2023/04/29 06:34:54;;;;;;;41.43;23.03;;;11.90;99.90;;;;;;5224675;28;20202;-46
2023/04/29 06:37:25;;;;;;;38.00;22.77;;;11.90;99.90;;;;;;5219904;28;20700;-45
2023/04/29 06:39:56;;;;;;;31.27;20.50;;;11.80;99.90;;;;;;5206295;28;20322;-46
2023/04/29 06:42:27;;;;;;;41.87;24.67;;;11.80;99.90;;;;;;5221193;28;20531;-44
2023/04/29 06:44:58;;;;;;;38.63;21.70;;;11.80;99.90;;;;;;5219644;28;20720;-44
2023/04/29 06:47:29;;;;;;;34.60;19.87;;;11.70;99.90;;;;;;5220829;28;20530;-46
2023/04/29 06:50:00;;;;;;;35.83;23.70;;;11.70;99.90;;;;;;5223048;28;21529;-45
2023/04/29 06:52:30;;;;;;;33.07;23.00;;;11.70;99.90;;;;;;5220201;28;20199;-47
2023/04/29 06:55:02;;;;;;;32.97;20.47;;;11.70;99.90;;;;;;5221991;28;20953;-46
2023/04/29 06:57:32;;;;;;;28.63;19.60;;;11.80;99.90;;;;;;5216500;28;20178;-44
2023/04/29 07:00:04;;;;;;;27.13;20.10;;;11.80;99.90;;;;;;5220922;28;20819;-47
2023/04/29 07:02:37;;;;;;;30.47;21.47;;;11.80;99.90;;;;;;5217530;28;20178;-44
2023/04/29 07:05:08;;;;;;;25.40;18.07;;;11.80;99.90;;;;;;5219993;28;20441;-47
2023/04/29 07:07:39;;;;;;;28.23;18.37;;;11.80;99.90;;;;;;5222070;28;20542;-45
2023/04/29 07:10:09;;;;;;;33.47;19.60;;;11.90;99.90;;;;;;5222595;28;20795;-48
2023/04/29 07:12:40;;;;;;;30.87;20.17;;;11.80;99.90;;;;;;5218075;28;20222;-44
2023/04/29 07:15:11;;;;;;;31.97;19.40;;;11.70;99.90;;;;;;5215540;28;20179;-46
2023/04/29 07:17:41;;;;;;;25.83;18.60;;;11.70;99.90;;;;;;5218246;28;20172;-45
2023/04/29 07:20:13;;;;;;;27.70;18.73;;;11.70;99.90;;;;;;5218886;28;20179;-45
2023/04/29 07:22:43;;;;;;;34.83;20.70;;;11.70;99.90;;;;;;5216124;28;20191;-46
2023/04/29 07:25:14;;;;;;;32.70;19.33;;;11.60;99.90;;;;;;5219027;28;20438;-42
2023/04/29 07:27:45;;;;;;;29.77;20.07;;;11.60;99.90;;;;;;5212564;28;20171;-44
2023/04/29 07:30:15;;;;;;;29.33;17.60;;;11.60;99.90;;;;;;5215978;28;20191;-47
2023/04/29 07:32:46;;;;;;;30.37;19.63;;;11.60;99.90;;;;;;5215491;28;20211;-44
2023/04/29 07:35:17;;;;;;;35.57;20.40;;;11.60;99.90;;;;;;5219106;28;20179;-45
2023/04/29 07:37:48;;;;;;;26.97;20.20;;;11.70;99.90;;;;;;5213050;28;20400;-43
2023/04/29 07:40:18;;;;;;;31.27;19.47;;;11.60;99.90;;;;;;5214006;28;20442;-46
2023/04/29 07:42:49;;;;;;;27.33;18.93;;;11.60;99.90;;;;;;5208592;28;20254;-46
2023/04/29 07:45:19;;;;;;;30.90;19.50;;;11.60;99.90;;;;;;5229835;28;20222;-46
2023/04/29 07:47:50;;;;;;;28.63;18.20;;;11.60;99.90;;;;;;5213817;28;20209;-45
2023/04/29 07:50:21;;;;;;;22.90;17.53;;;11.60;99.90;;;;;;5226260;28;20643;-45
2023/04/29 07:52:54;;;;;;;25.97;18.10;;;11.40;99.90;;;;;;5220020;28;20253;-45
2023/04/29 07:55:25;;;;;;;25.50;19.13;;;11.30;99.90;;;;;;5214777;28;20841;-47
2023/04/29 07:57:57;;;;;;;28.03;17.40;;;11.30;99.90;;;;;;5206937;28;20439;-46
2023/04/29 08:00:27;;;;;;;19.50;15.00;;;11.40;99.90;;;;;;5222153;28;20533;-45
2023/04/29 08:02:58;;;;;;;24.77;16.10;;;11.40;99.90;;;;;;5217938;28;20548;-46
2023/04/29 08:05:29;;;;;;;22.87;16.47;;;11.40;99.90;;;;;;5208733;28;20269;-47
2023/04/29 08:08:00;;;;;;;20.70;16.53;;;11.40;99.90;;;;;;5213389;28;20206;-45
2023/04/29 08:10:30;;;;;;;19.00;15.00;;;11.50;99.90;;;;;;5212533;28;20503;-46
2023/04/29 08:13:01;;;;;;;19.43;14.80;;;11.60;99.90;;;;;;5215833;28;20579;-46
2023/04/29 08:15:32;;;;;;;22.07;14.30;;;11.60;99.90;;;;;;5213820;28;20175;-45
2023/04/29 08:18:03;;;;;;;14.07;12.63;;;11.60;99.90;;;;;;5221366;28;20252;-45
2023/04/29 08:20:34;;;;;;;17.83;12.00;;;11.50;99.90;;;;;;5216014;28;20441;-45
2023/04/29 08:23:04;;;;;;;18.67;13.10;;;11.40;99.90;;;;;;5220799;28;20207;-46
2023/04/29 08:25:35;;;;;;;15.33;11.40;;;11.40;99.90;;;;;;5213803;28;20190;-47
2023/04/29 08:28:06;;;;;;;16.00;13.00;;;11.30;99.90;;;;;;5214309;28;20696;-48
2023/04/29 08:30:39;;;;;;;18.40;12.33;;;11.20;99.90;;;;;;5212061;28;20486;-47
2023/04/29 08:33:11;;;;;;;20.33;13.07;;;11.20;99.90;;;;;;5216865;28;20461;-47
2023/04/29 08:35:42;;;;;;;18.87;12.97;;;11.10;99.90;;;;;;5216269;28;20461;-45
2023/04/29 08:38:12;;;;;;;17.30;13.57;;;11.20;99.90;;;;;;5217971;28;20491;-45
2023/04/29 08:40:45;;;;;;;19.73;14.60;;;11.20;99.90;;;;;;5221384;28;20225;-46
2023/04/29 08:43:17;;;;;;;16.87;12.77;;;11.20;99.90;;;;;;5219872;28;20202;-47
2023/04/29 08:45:49;;;;;;;18.20;13.23;;;11.30;99.90;;;;;;5218259;28;20438;-46
2023/04/29 08:48:20;;;;;;;22.77;14.23;;;11.40;99.90;;;;;;5220908;28;20461;-47
2023/04/29 08:50:51;;;;;;;21.20;13.70;;;11.50;99.90;;;;;;5219135;28;20447;-48
2023/04/29 08:53:22;;;;;;;19.20;15.07;;;11.50;99.90;;;;;;5216900;28;20473;-46
2023/04/29 08:55:54;;;;;;;21.20;14.63;;;11.50;99.90;;;;;;5213350;28;20188;-46
2023/04/29 08:58:27;;;;;;;19.20;14.60;;;11.40;99.90;;;;;;5219905;28;20266;-46
2023/04/29 09:00:58;;;;;;;23.83;16.57;;;11.40;99.90;;;;;;5211981;28;20524;-48
2023/04/29 09:04:04;;;;;;;22.77;15.93;;;11.30;99.90;;;;;;5213738;28;21152;-45
2023/04/29 09:06:35;;;;;;;28.30;18.23;;;11.30;99.90;;;;;;5216227;28;20653;-46
2023/04/29 09:09:05;;;;;;;29.23;18.27;;;11.30;99.90;;;;;;5200399;28;20528;-46
2023/04/29 09:11:36;;;;;;;25.90;17.77;;;11.30;99.90;;;;;;5208513;28;20234;-47
2023/04/29 09:14:08;;;;;;;38.60;19.70;;;11.30;99.90;;;;;;5221324;28;20225;-46
2023/04/29 09:16:39;;;;;;;33.43;19.03;;;11.20;99.90;;;;;;5212037;28;20190;-47
2023/04/29 09:19:09;;;;;;;33.83;19.27;;;11.20;99.90;;;;;;5217605;28;20430;-47
2023/04/29 09:21:40;;;;;;;34.37;20.97;;;11.10;99.90;;;;;;5215452;28;20237;-47
2023/04/29 09:24:11;;;;;;;34.07;20.80;;;11.00;99.90;;;;;;5217953;28;20202;-47
2023/04/29 09:26:42;;;;;;;35.80;22.53;;;11.10;99.90;;;;;;5217797;28;20198;-47
2023/04/29 09:29:14;;;;;;;36.17;21.70;;;11.00;99.90;;;;;;5215931;28;20433;-45
2023/04/29 09:31:46;;;;;;;36.63;22.10;;;11.00;99.90;;;;;;5215783;28;20461;-47
2023/04/29 09:34:16;;;;;;;37.90;23.33;;;11.00;99.90;;;;;;5217476;28;20457;-46
2023/04/29 09:36:49;;;;;;;36.73;22.37;;;11.00;99.90;;;;;;5219041;28;20442;-46
2023/04/29 09:39:22;;;;;;;46.20;24.07;;;11.00;99.90;;;;;;5217523;28;20202;-45
2023/04/29 09:41:52;;;;;;;46.33;25.37;;;11.00;99.90;;;;;;5205367;28;20442;-47
2023/04/29 09:44:34;;;;;;;46.63;24.00;;;11.10;99.90;;;;;;5211825;28;20466;-47
2023/04/29 09:47:06;;;;;;;47.00;27.53;;;11.10;99.90;;;;;;5209567;28;20176;-46
2023/04/29 09:49:41;;;;;;;47.87;27.67;;;11.10;99.90;;;;;;5220887;28;20933;-48
2023/04/29 09:52:19;;;;;;;53.93;28.40;;;11.10;99.90;;;;;;5213333;28;20465;-47
2023/04/29 09:54:50;;;;;;;54.27;30.30;;;11.00;99.90;;;;;;5216487;28;20516;-46
2023/04/29 09:57:24;;;;;;;56.20;30.17;;;10.90;99.90;;;;;;5216934;28;20545;-46
2023/04/29 09:59:55;;;;;;;57.63;33.60;;;11.00;99.90;;;;;;5210742;28;20566;-44
2023/04/29 10:02:26;;;;;;;76.13;34.77;;;10.90;99.90;;;;;;5221414;28;20479;-46
2023/04/29 10:04:58;;;;;;;61.73;34.10;;;10.90;99.90;;;;;;5222900;28;20917;-47
2023/04/29 10:07:28;;;;;;;65.07;35.20;;;10.90;99.90;;;;;;5220869;28;20948;-47
2023/04/29 10:10:00;;;;;;;61.27;36.03;;;11.00;99.90;;;;;;5213504;28;20445;-49
2023/04/29 10:12:34;;;;;;;64.23;33.80;;;11.10;99.90;;;;;;5210206;28;20756;-47
2023/04/29 10:15:20;;;;;;;58.00;33.87;;;11.00;99.90;;;;;;5234794;23;20496;-52
2023/04/29 10:18:14;;;;;;;73.77;36.90;;;11.10;99.90;;;;;;5216116;28;20433;-50
2023/04/29 10:20:47;;;;;;;75.03;39.10;;;11.20;99.90;;;;;;5215578;28;20434;-54
2023/04/29 10:23:20;;;;;;;55.30;31.70;;;11.50;99.90;;;;;;5216538;28;20457;-51
2023/04/29 10:25:52;;;;;;;52.97;31.63;;;11.50;99.90;;;;;;5220353;28;20600;-52
2023/04/29 10:28:24;;;;;;;45.63;28.07;;;11.70;99.90;;;;;;5220524;28;20437;-50
2023/04/29 10:30:56;;;;;;;52.27;30.90;;;11.70;99.90;;;;;;5221773;28;20948;-50
2023/04/29 10:33:31;;;;;;;55.80;28.80;;;11.90;99.90;;;;;;5221696;28;20718;-53
2023/04/29 10:36:02;;;;;;;52.10;30.27;;;12.00;99.90;;;;;;5219074;28;20762;-50
2023/04/29 10:38:39;;;;;;;48.23;28.70;;;12.00;99.90;;;;;;5223437;28;21000;-50
2023/04/29 10:41:19;;;;;;;45.73;26.97;;;12.00;99.90;;;;;;5228137;28;20587;-50
2023/04/29 10:43:51;;;;;;;46.07;28.60;;;11.90;99.90;;;;;;5223685;28;20450;-51
2023/04/29 10:46:25;;;;;;;44.53;29.37;;;11.90;99.90;;;;;;5225024;28;21004;-51
2023/04/29 10:49:01;;;;;;;41.30;26.00;;;12.00;99.90;;;;;;5226292;28;20433;-51
2023/04/29 10:51:32;;;;;;;40.80;25.17;;;12.10;99.90;;;;;;5224049;28;20840;-51
2023/04/29 10:54:14;;;;;;;36.80;24.57;;;12.30;99.90;;;;;;5223630;28;20448;-51
2023/04/29 10:56:49;;;;;;;47.87;26.13;;;12.50;99.90;;;;;;5227701;28;20179;-52
2023/04/29 10:59:40;;;;;;;35.10;22.00;;;12.70;99.90;;;;;;5226446;28;20473;-50
2023/04/29 11:02:11;;;;;;;36.00;21.70;;;12.80;99.90;;;;;;5230933;28;20437;-51
2023/04/29 11:05:16;;;;;;;30.10;19.43;;;12.60;99.90;;;;;;5224328;28;20948;-51
2023/04/29 11:07:47;;;;;;;25.67;19.27;;;12.60;99.90;;;;;;5203761;28;20195;-51
2023/04/29 11:10:18;;;;;;;34.13;19.63;;;12.80;99.90;;;;;;5223964;28;20797;-50
2023/04/29 11:13:08;;;;;;;25.70;19.00;;;12.80;99.90;;;;;;5222884;28;20203;-50
2023/04/29 11:15:39;;;;;;;36.73;19.00;;;12.90;99.90;;;;;;5221998;28;20182;-49
2023/04/29 11:18:10;;;;;;;25.57;18.03;;;12.90;99.90;;;;;;5223834;28;20888;-49
2023/04/29 11:21:03;;;;;;;27.53;18.97;;;13.10;99.90;;;;;;5226731;28;20497;-48
2023/04/29 11:23:40;;;;;;;19.30;15.83;;;13.10;99.90;;;;;;5225593;28;20647;-49
2023/04/29 11:26:10;;;;;;;26.47;18.30;;;13.30;99.90;;;;;;5220957;28;21067;-50
2023/04/29 11:28:42;;;;;;;22.20;15.80;;;13.30;99.90;;;;;;5224807;28;20517;-53
2023/04/29 11:31:12;;;;;;;21.57;16.37;;;13.50;99.90;;;;;;5223670;28;21227;-49
2023/04/29 11:33:43;;;;;;;21.37;15.57;;;13.60;99.90;;;;;;5218428;28;20556;-50
2023/04/29 11:36:14;;;;;;;17.57;13.53;;;13.90;99.90;;;;;;5221677;28;20190;-48
2023/04/29 11:38:45;;;;;;;33.63;16.77;;;14.20;99.90;;;;;;5225116;28;20175;-51
2023/04/29 11:41:16;;;;;;;22.03;14.93;;;14.40;99.90;;;;;;5215239;28;20273;-53
2023/04/29 11:43:47;;;;;;;22.73;13.50;;;14.50;99.90;;;;;;5220792;28;20209;-50
2023/04/29 11:46:17;;;;;;;27.03;13.10;;;14.50;99.90;;;;;;5223280;28;20190;-50
2023/04/29 11:48:48;;;;;;;23.30;15.90;;;14.50;99.90;;;;;;5223487;28;20522;-50
2023/04/29 11:51:19;;;;;;;21.63;13.90;;;14.60;99.90;;;;;;5221298;28;20180;-47
2023/04/29 11:53:51;;;;;;;23.50;12.20;;;14.60;99.90;;;;;;5224516;28;20622;-50
2023/04/29 11:56:25;;;;;;;14.90;11.50;;;14.60;99.90;;;;;;5224413;28;20235;-50
2023/04/29 11:58:56;;;;;;;19.83;12.30;;;14.70;99.90;;;;;;5219493;28;20445;-48
2023/04/29 12:01:27;;;;;;;16.27;11.00;;;14.80;99.90;;;;;;5225837;28;20533;-50
2023/04/29 12:03:58;;;;;;;13.50;11.67;;;14.60;99.90;;;;;;5210274;28;20457;-49
2023/04/29 12:06:29;;;;;;;16.60;12.07;;;14.80;99.90;;;;;;5209728;28;20243;-51
2023/04/29 12:09:00;;;;;;;21.20;12.40;;;14.80;99.90;;;;;;5215088;28;20514;-50
2023/04/29 12:11:31;;;;;;;15.40;12.13;;;14.60;99.90;;;;;;5230893;28;20520;-50
2023/04/29 12:14:05;;;;;;;15.57;10.77;;;14.30;99.90;;;;;;5218181;28;20542;-48
2023/04/29 12:16:36;;;;;;;12.60;11.00;;;14.00;99.90;;;;;;5217963;28;20171;-50
2023/04/29 12:19:09;;;;;;;15.60;11.60;;;13.80;99.90;;;;;;5216651;28;20429;-54
2023/04/29 12:21:48;;;;;;;18.13;10.40;;;13.60;99.90;;;;;;5219335;28;20540;-50
2023/04/29 12:24:20;;;;;;;11.87;10.70;;;13.60;99.90;;;;;;5216121;28;20456;-49
2023/04/29 12:26:52;;;;;;;13.23;10.07;;;13.70;99.90;;;;;;5220638;28;20429;-48
2023/04/29 12:29:24;;;;;;;16.73;10.50;;;13.90;99.90;;;;;;5220752;28;20971;-49
2023/04/29 12:31:55;;;;;;;14.90;11.23;;;14.20;99.90;;;;;;5219802;28;20968;-49
2023/04/29 12:34:31;;;;;;;15.90;9.87;;;14.50;99.90;;;;;;5217326;28;20460;-49
2023/04/29 12:37:02;;;;;;;10.87;8.97;;;14.90;99.90;;;;;;5225865;28;20186;-50
2023/04/29 12:39:33;;;;;;;12.60;9.73;;;15.10;99.90;;;;;;5220516;28;20433;-50
2023/04/29 12:42:04;;;;;;;11.60;10.07;;;15.00;99.90;;;;;;5219889;28;20579;-53
2023/04/29 12:44:39;;;;;;;10.43;9.10;;;15.10;99.90;;;;;;5223233;28;20453;-49
2023/04/29 12:47:12;;;;;;;10.53;9.10;;;15.20;99.90;;;;;;5222526;28;20663;-49
2023/04/29 12:49:47;;;;;;;12.30;8.73;;;15.20;99.90;;;;;;5227229;28;20433;-48
2023/04/29 12:52:18;;;;;;;10.53;8.57;;;15.10;99.90;;;;;;5221628;28;20464;-50
2023/04/29 12:54:49;;;;;;;13.97;10.50;;;14.90;99.90;;;;;;5224534;28;20461;-49